Time;durP1;ratioP1;P1;durP2;ratioP2;P2;SDS_P1;SDS_P2;PMS_P1;PMS_P2;Temp;Humidity;BMP_temperature;BMP_pressure;BME280_temperature;BME280_humidity;BME280_pressure;Samples;Min_cycle;Max_cycle;Signal;HPM_P1;HPM_P2
2022/04/29 00:01:59;;;;;;;23.95;10.85;;;8.90;99.90;;;;;;4979349;28;20027;-59
2022/04/29 00:04:25;;;;;;;20.55;11.07;;;8.90;99.90;;;;;;4961938;28;20054;-57
2022/04/29 00:06:51;;;;;;;21.17;11.75;;;8.80;99.90;;;;;;4985338;28;20030;-59
2022/04/29 00:09:17;;;;;;;19.67;10.27;;;8.90;99.90;;;;;;4975204;28;20039;-60
2022/04/29 00:11:43;;;;;;;24.55;10.60;;;8.90;99.90;;;;;;4975599;28;20030;-56
2022/04/29 00:14:09;;;;;;;17.13;10.02;;;8.90;99.90;;;;;;4974606;28;20165;-58
2022/04/29 00:16:34;;;;;;;22.98;10.48;;;8.90;99.90;;;;;;4981339;28;20117;-58
2022/04/29 00:19:00;;;;;;;18.85;10.23;;;8.90;99.90;;;;;;4975946;28;20031;-58
2022/04/29 00:21:26;;;;;;;22.25;10.27;;;8.90;99.90;;;;;;4981267;28;20022;-57
2022/04/29 00:23:51;;;;;;;27.13;11.15;;;8.90;99.90;;;;;;4987766;28;20056;-57
2022/04/29 00:26:17;;;;;;;24.05;11.55;;;9.00;99.90;;;;;;4990781;28;20030;-57
2022/04/29 00:28:43;;;;;;;20.98;10.98;;;9.00;99.90;;;;;;4987603;28;20045;-57
2022/04/29 00:31:08;;;;;;;20.30;10.73;;;9.00;99.90;;;;;;4990106;28;20667;-57
2022/04/29 00:33:34;;;;;;;21.13;11.15;;;8.90;99.90;;;;;;4973881;28;20102;-56
2022/04/29 00:35:59;;;;;;;22.58;10.65;;;8.90;99.90;;;;;;4987086;28;20041;-57
2022/04/29 00:38:25;;;;;;;16.55;10.57;;;8.80;99.90;;;;;;4985344;28;20049;-60
2022/04/29 00:40:50;;;;;;;16.67;10.48;;;8.70;99.90;;;;;;4985944;28;21937;-59
2022/04/29 00:43:16;;;;;;;19.83;10.70;;;8.70;99.90;;;;;;4991538;28;20010;-58
2022/04/29 00:45:41;;;;;;;21.75;9.88;;;8.70;99.90;;;;;;4992222;28;20033;-52
2022/04/29 00:48:08;;;;;;;18.63;10.60;;;8.70;99.90;;;;;;4986220;28;20027;-58
2022/04/29 00:50:35;;;;;;;20.23;11.68;;;8.70;99.90;;;;;;4987209;28;20038;-58
2022/04/29 00:53:02;;;;;;;21.13;11.30;;;8.80;99.90;;;;;;4980405;28;20105;-57
2022/04/29 00:55:29;;;;;;;20.08;10.88;;;8.80;99.90;;;;;;4988684;28;20041;-60
2022/04/29 00:58:33;;;;;;;22.92;11.32;;;8.90;99.90;;;;;;4994949;28;20018;-58
2022/04/29 01:01:03;;;;;;;19.27;10.60;;;9.00;99.90;;;;;;5000691;28;20070;-60
2022/04/29 01:03:29;;;;;;;17.70;10.05;;;9.00;99.90;;;;;;4976493;28;20040;-59
2022/04/29 01:05:55;;;;;;;16.63;9.73;;;8.90;99.90;;;;;;4991371;28;20555;-56
2022/04/29 01:08:20;;;;;;;19.33;11.45;;;8.80;99.90;;;;;;4985802;28;20476;-59
2022/04/29 01:10:47;;;;;;;21.42;11.50;;;8.80;99.90;;;;;;4988240;28;20666;-59
2022/04/29 01:13:13;;;;;;;19.70;10.82;;;8.70;99.90;;;;;;4989106;28;20181;-58
2022/04/29 01:15:39;;;;;;;19.13;10.85;;;8.60;99.90;;;;;;4986174;28;20555;-58
2022/04/29 01:18:08;;;;;;;22.05;10.30;;;8.60;99.90;;;;;;4990886;28;20076;-57
2022/04/29 01:20:35;;;;;;;18.85;11.35;;;8.60;99.90;;;;;;4989527;28;20080;-60
2022/04/29 01:23:08;;;;;;;19.00;10.80;;;8.60;99.90;;;;;;4996874;28;20038;-59
2022/04/29 01:25:34;;;;;;;24.75;11.18;;;8.50;99.90;;;;;;4982770;28;20030;-59
2022/04/29 01:28:00;;;;;;;24.20;11.43;;;8.50;99.90;;;;;;4983502;28;20045;-57
2022/04/29 01:30:25;;;;;;;22.55;10.32;;;8.50;99.90;;;;;;4985888;28;20109;-57
2022/04/29 01:32:53;;;;;;;18.50;10.20;;;8.40;99.90;;;;;;4986414;28;20129;-60
2022/04/29 01:35:18;;;;;;;21.17;12.10;;;8.40;99.90;;;;;;4987035;28;20031;-57
2022/04/29 01:37:44;;;;;;;16.92;10.68;;;8.40;99.90;;;;;;4988862;28;20037;-56
2022/04/29 01:40:11;;;;;;;20.92;10.88;;;8.30;99.90;;;;;;4989343;28;20038;-58
2022/04/29 01:42:38;;;;;;;18.90;11.00;;;8.20;99.90;;;;;;4988245;28;20113;-57
2022/04/29 01:45:04;;;;;;;22.00;13.25;;;8.20;99.90;;;;;;4995118;28;20176;-56
2022/04/29 01:47:30;;;;;;;20.95;11.57;;;8.20;99.90;;;;;;4986324;28;20088;-58
2022/04/29 01:49:56;;;;;;;25.13;10.68;;;8.10;99.90;;;;;;4989956;28;20109;-56
2022/04/29 01:52:22;;;;;;;25.15;11.00;;;8.10;99.90;;;;;;4990883;28;20066;-59
2022/04/29 01:54:47;;;;;;;37.40;12.20;;;8.20;99.90;;;;;;4990868;28;20065;-58
2022/04/29 01:57:13;;;;;;;17.88;10.68;;;8.20;99.90;;;;;;4994688;28;20030;-55
2022/04/29 01:59:38;;;;;;;25.50;11.25;;;8.20;99.90;;;;;;4989573;28;20045;-59
2022/04/29 02:02:11;;;;;;;27.20;11.98;;;8.20;99.90;;;;;;4993821;28;20043;-56
2022/04/29 02:04:37;;;;;;;18.70;11.25;;;8.10;99.90;;;;;;4986727;28;20187;-57
2022/04/29 02:07:06;;;;;;;18.63;10.48;;;8.10;99.90;;;;;;4990493;28;20570;-58
2022/04/29 02:09:32;;;;;;;25.65;11.10;;;8.10;99.90;;;;;;4991558;28;20030;-58
2022/04/29 02:12:04;;;;;;;23.70;10.95;;;8.20;99.90;;;;;;4992477;28;20030;-58
2022/04/29 02:14:34;;;;;;;22.42;10.60;;;8.10;99.90;;;;;;4990085;28;20109;-56
2022/04/29 02:17:01;;;;;;;33.72;13.68;;;8.10;99.90;;;;;;4986797;28;20081;-59
2022/04/29 02:19:28;;;;;;;22.75;10.98;;;8.00;99.90;;;;;;4994682;28;20045;-57
2022/04/29 02:21:54;;;;;;;24.30;11.60;;;8.00;99.90;;;;;;4985378;28;20034;-57
2022/04/29 02:24:20;;;;;;;23.15;11.25;;;7.90;99.90;;;;;;4983990;28;20038;-58
2022/04/29 02:26:45;;;;;;;22.50;11.57;;;7.90;99.90;;;;;;4989541;28;20660;-59
2022/04/29 02:29:11;;;;;;;24.50;10.73;;;7.80;99.90;;;;;;4992345;28;20040;-58
2022/04/29 02:31:36;;;;;;;28.45;12.52;;;7.70;99.90;;;;;;4991539;28;20034;-57
2022/04/29 02:34:03;;;;;;;25.27;12.23;;;7.70;99.90;;;;;;4991747;28;20041;-58
2022/04/29 02:36:29;;;;;;;21.42;11.60;;;7.60;99.90;;;;;;4989892;28;20065;-56
2022/04/29 02:38:54;;;;;;;21.55;11.88;;;7.60;99.90;;;;;;4987766;28;20058;-60
2022/04/29 02:41:20;;;;;;;33.03;12.10;;;7.60;99.90;;;;;;4991087;28;20030;-58
2022/04/29 02:43:45;;;;;;;23.73;12.30;;;7.50;99.90;;;;;;4990662;28;20030;-56
2022/04/29 02:46:11;;;;;;;24.75;11.38;;;7.60;99.90;;;;;;4995924;28;20041;-60
2022/04/29 02:48:36;;;;;;;25.85;12.13;;;7.60;99.90;;;;;;4992166;28;20046;-60
2022/04/29 02:51:05;;;;;;;26.73;11.80;;;7.60;99.90;;;;;;4984642;28;20105;-60
2022/04/29 02:53:33;;;;;;;21.50;12.38;;;7.60;99.90;;;;;;4989819;28;20038;-59
2022/04/29 02:55:59;;;;;;;23.77;12.07;;;7.70;99.90;;;;;;4989583;28;20399;-58
2022/04/29 02:58:24;;;;;;;21.15;11.45;;;7.80;99.90;;;;;;4990020;28;20032;-57
2022/04/29 03:00:50;;;;;;;18.98;11.07;;;7.80;99.90;;;;;;4979690;28;20022;-61
2022/04/29 03:03:15;;;;;;;20.45;12.27;;;7.80;99.90;;;;;;4990807;28;20546;-60
2022/04/29 03:05:41;;;;;;;21.73;11.68;;;7.80;99.90;;;;;;4991465;28;20566;-59
2022/04/29 03:08:07;;;;;;;19.92;11.18;;;7.80;99.90;;;;;;4987574;28;20046;-60
2022/04/29 03:10:34;;;;;;;21.33;11.98;;;7.80;99.90;;;;;;4986680;28;20034;-55
2022/04/29 03:13:00;;;;;;;19.95;11.93;;;7.80;99.90;;;;;;4988243;28;20026;-56
2022/04/29 03:15:25;;;;;;;26.65;10.88;;;7.90;99.90;;;;;;4983532;28;20060;-59
2022/04/29 03:20:38;;;;;;;21.83;12.02;;;7.80;99.90;;;;;;4997579;28;20029;-58
2022/04/29 03:23:06;;;;;;;22.45;12.35;;;7.80;99.90;;;;;;4984422;28;20023;-59
2022/04/29 03:25:32;;;;;;;19.75;10.60;;;7.80;99.90;;;;;;4986315;28;20027;-60
2022/04/29 03:27:58;;;;;;;25.63;11.60;;;7.80;99.90;;;;;;4985158;28;20113;-57
2022/04/29 03:30:24;;;;;;;21.95;12.15;;;7.80;99.90;;;;;;4989541;28;20038;-58
2022/04/29 03:32:57;;;;;;;22.38;11.45;;;7.80;99.90;;;;;;4988788;28;20825;-57
2022/04/29 03:35:23;;;;;;;24.15;12.77;;;7.80;99.90;;;;;;4988403;28;20058;-56
2022/04/29 03:37:51;;;;;;;23.45;12.27;;;7.80;99.90;;;;;;4989455;28;20081;-59
2022/04/29 03:40:20;;;;;;;21.00;12.70;;;7.70;99.90;;;;;;4989069;28;20567;-57
2022/04/29 03:42:46;;;;;;;22.45;11.52;;;7.70;99.90;;;;;;4985141;28;20022;-59
2022/04/29 03:45:12;;;;;;;19.52;11.43;;;7.70;99.90;;;;;;4985675;28;20034;-58
2022/04/29 03:47:38;;;;;;;27.10;12.30;;;7.70;99.90;;;;;;4986400;28;20654;-60
2022/04/29 03:50:04;;;;;;;21.40;12.70;;;7.60;99.90;;;;;;4990078;28;20435;-59
2022/04/29 03:52:30;;;;;;;21.60;10.63;;;7.50;99.90;;;;;;4989523;28;20104;-59
2022/04/29 03:54:56;;;;;;;22.30;11.85;;;7.60;99.90;;;;;;4990260;28;20034;-59
2022/04/29 03:57:21;;;;;;;22.60;11.30;;;7.50;99.90;;;;;;4989882;28;20399;-57
2022/04/29 03:59:48;;;;;;;21.75;12.45;;;7.50;99.90;;;;;;4992558;28;20189;-59
2022/04/29 04:02:15;;;;;;;19.25;11.10;;;7.60;99.90;;;;;;4991471;28;20026;-59
2022/04/29 04:04:41;;;;;;;15.65;11.02;;;7.60;99.90;;;;;;4987526;28;20022;-58
2022/04/29 04:07:07;;;;;;;19.50;11.10;;;7.60;99.90;;;;;;4989219;28;20549;-56
2022/04/29 04:09:32;;;;;;;21.50;11.32;;;7.50;99.90;;;;;;4988098;28;20034;-57
2022/04/29 04:11:58;;;;;;;25.65;12.52;;;7.50;99.90;;;;;;4986648;28;20042;-60
2022/04/29 04:14:23;;;;;;;25.15;12.35;;;7.50;99.90;;;;;;4987355;28;20042;-58
2022/04/29 04:16:49;;;;;;;23.35;12.18;;;7.50;99.90;;;;;;4988344;28;20178;-57
2022/04/29 04:19:14;;;;;;;27.52;13.52;;;7.50;99.90;;;;;;4992889;28;20117;-58
2022/04/29 04:21:40;;;;;;;24.30;13.02;;;7.50;99.90;;;;;;4988880;28;20070;-58
2022/04/29 04:24:07;;;;;;;23.80;12.60;;;7.40;99.90;;;;;;4992614;28;20038;-56
2022/04/29 04:26:32;;;;;;;23.85;12.48;;;7.50;99.90;;;;;;4994076;28;20053;-57
2022/04/29 04:28:58;;;;;;;26.50;13.95;;;7.50;99.90;;;;;;4983413;28;20038;-58
2022/04/29 04:31:24;;;;;;;25.52;11.35;;;7.50;99.90;;;;;;4990449;28;20045;-58
2022/04/29 04:33:51;;;;;;;26.95;11.90;;;7.50;99.90;;;;;;4994094;28;20035;-59
2022/04/29 04:36:16;;;;;;;29.08;13.15;;;7.50;99.90;;;;;;4992783;28;20044;-58
2022/04/29 04:38:45;;;;;;;25.33;11.55;;;7.60;99.90;;;;;;4991189;28;20403;-57
2022/04/29 04:41:11;;;;;;;20.67;11.65;;;7.60;99.90;;;;;;4994680;28;20101;-59
2022/04/29 04:43:37;;;;;;;19.52;12.13;;;7.60;99.90;;;;;;4988210;28;20805;-58
2022/04/29 04:46:03;;;;;;;22.20;12.18;;;7.60;99.90;;;;;;4991711;28;20044;-60
2022/04/29 04:48:28;;;;;;;23.25;12.02;;;7.60;99.90;;;;;;4990202;28;20034;-56
2022/04/29 04:50:54;;;;;;;24.52;11.80;;;7.60;99.90;;;;;;4982083;28;20381;-59
2022/04/29 04:53:20;;;;;;;23.58;12.68;;;7.60;99.90;;;;;;4990822;28;20073;-59
2022/04/29 04:55:45;;;;;;;24.50;12.25;;;7.60;99.90;;;;;;4991523;28;20094;-52
2022/04/29 04:58:11;;;;;;;27.42;12.45;;;7.60;99.90;;;;;;5003483;28;20607;-58
2022/04/29 05:00:37;;;;;;;18.67;11.80;;;7.70;99.90;;;;;;4989552;28;20054;-59
2022/04/29 05:03:05;;;;;;;28.75;12.18;;;7.70;99.90;;;;;;4993067;28;20023;-58
2022/04/29 05:05:31;;;;;;;24.85;12.00;;;7.80;99.90;;;;;;4992967;28;20026;-59
2022/04/29 05:07:57;;;;;;;25.08;11.73;;;7.90;99.90;;;;;;4992492;28;20077;-58
2022/04/29 05:10:22;;;;;;;23.27;11.55;;;8.00;99.90;;;;;;4979247;28;20069;-58
2022/04/29 05:12:48;;;;;;;25.13;11.43;;;8.00;99.90;;;;;;4984653;28;20034;-56
2022/04/29 05:15:14;;;;;;;27.52;12.88;;;8.20;99.90;;;;;;4987093;28;20049;-59
2022/04/29 05:17:40;;;;;;;23.83;13.85;;;8.20;99.90;;;;;;4991382;28;20434;-56
2022/04/29 05:20:08;;;;;;;23.77;12.93;;;8.30;99.90;;;;;;4987596;28;20026;-58
2022/04/29 05:22:33;;;;;;;19.75;11.00;;;8.40;99.90;;;;;;4990838;28;20110;-58
2022/04/29 05:24:59;;;;;;;25.38;11.80;;;8.50;99.90;;;;;;4992666;28;20146;-58
2022/04/29 05:27:25;;;;;;;25.45;12.70;;;8.60;99.90;;;;;;4993376;28;20506;-57
2022/04/29 05:29:50;;;;;;;17.65;11.77;;;8.70;99.90;;;;;;4986540;28;20038;-58
2022/04/29 05:32:16;;;;;;;24.05;11.35;;;8.80;99.90;;;;;;4991102;28;20030;-57
2022/04/29 05:34:43;;;;;;;23.02;10.85;;;8.90;99.90;;;;;;4990336;28;20502;-57
2022/04/29 05:37:09;;;;;;;19.75;10.52;;;9.00;99.90;;;;;;4991738;28;20060;-60
2022/04/29 05:42:24;;;;;;;20.42;11.65;;;9.10;99.90;;;;;;4998498;28;20116;-60
2022/04/29 05:44:50;;;;;;;18.85;11.27;;;9.30;99.90;;;;;;4991275;28;20054;-57
2022/04/29 05:47:15;;;;;;;20.08;10.30;;;9.50;99.90;;;;;;4988981;28;20069;-58
2022/04/29 05:49:41;;;;;;;18.13;9.65;;;9.50;99.90;;;;;;4988461;28;20037;-59
2022/04/29 05:52:09;;;;;;;19.45;11.35;;;9.60;99.90;;;;;;4992416;28;20046;-56
2022/04/29 05:54:35;;;;;;;21.27;11.07;;;9.80;99.90;;;;;;4991754;28;20034;-59
2022/04/29 05:57:02;;;;;;;20.92;12.20;;;9.90;99.90;;;;;;4992239;28;20049;-60
2022/04/29 05:59:28;;;;;;;19.70;11.15;;;10.00;99.90;;;;;;4987027;28;20102;-58
2022/04/29 06:01:54;;;;;;;19.17;12.25;;;10.10;99.90;;;;;;4984889;28;20018;-59
2022/04/29 06:04:20;;;;;;;18.08;10.77;;;10.30;99.90;;;;;;4985681;28;20077;-54
2022/04/29 06:06:46;;;;;;;17.75;11.50;;;10.60;99.90;;;;;;4990770;28;20077;-58
2022/04/29 06:09:11;;;;;;;18.17;11.27;;;10.80;99.90;;;;;;4988576;28;20508;-59
2022/04/29 06:11:37;;;;;;;26.88;13.35;;;11.00;99.90;;;;;;4993218;28;20080;-61
2022/04/29 06:14:02;;;;;;;18.92;10.98;;;11.00;99.90;;;;;;4990209;28;20046;-59
2022/04/29 06:16:28;;;;;;;17.83;10.95;;;11.20;99.90;;;;;;4990944;28;20030;-59
2022/04/29 06:18:53;;;;;;;15.23;8.85;;;11.20;99.90;;;;;;4990836;28;20029;-61
2022/04/29 06:21:19;;;;;;;18.67;10.38;;;11.20;99.90;;;;;;4986346;28;20117;-60
2022/04/29 06:23:45;;;;;;;20.08;11.15;;;11.20;99.90;;;;;;4985944;28;20476;-53
2022/04/29 06:26:11;;;;;;;20.08;10.48;;;11.10;99.90;;;;;;4991078;28;20046;-60
2022/04/29 06:28:36;;;;;;;19.13;10.18;;;11.20;99.90;;;;;;4991249;28;20114;-58
2022/04/29 06:31:03;;;;;;;21.08;10.60;;;11.10;99.90;;;;;;4989768;28;20038;-60
2022/04/29 06:33:33;;;;;;;13.85;9.20;;;11.10;99.90;;;;;;4990742;28;20034;-58
2022/04/29 06:36:00;;;;;;;17.65;9.25;;;11.30;99.90;;;;;;4990812;28;20074;-58
2022/04/29 06:38:25;;;;;;;17.48;10.27;;;11.40;99.90;;;;;;4989666;28;20113;-56
2022/04/29 06:40:52;;;;;;;25.40;12.52;;;11.40;99.90;;;;;;4990185;28;20440;-60
2022/04/29 06:43:18;;;;;;;24.45;12.48;;;11.40;99.90;;;;;;4988486;28;20022;-59
2022/04/29 06:45:44;;;;;;;27.52;13.82;;;11.40;99.90;;;;;;4991936;28;20480;-57
2022/04/29 06:48:10;;;;;;;19.52;13.23;;;11.40;99.90;;;;;;4991389;28;20029;-60
2022/04/29 06:50:35;;;;;;;21.10;10.25;;;11.60;99.90;;;;;;4985219;28;20037;-60
2022/04/29 06:53:01;;;;;;;19.60;10.07;;;11.90;99.90;;;;;;4986407;28;20516;-55
2022/04/29 06:55:27;;;;;;;15.32;9.52;;;12.20;99.90;;;;;;4989101;28;20030;-56
2022/04/29 06:57:53;;;;;;;20.60;9.35;;;12.30;99.90;;;;;;4991492;28;20031;-58
2022/04/29 07:00:19;;;;;;;14.27;8.57;;;12.60;99.90;;;;;;4972700;28;20045;-60
2022/04/29 07:02:45;;;;;;;14.25;9.65;;;12.90;99.90;;;;;;4993436;28;20022;-60
2022/04/29 07:05:11;;;;;;;16.08;9.93;;;12.90;99.90;;;;;;4986130;28;20423;-59
2022/04/29 07:07:36;;;;;;;14.55;9.27;;;12.90;99.90;;;;;;4982230;28;20069;-60
2022/04/29 07:10:05;;;;;;;17.13;10.18;;;13.10;99.90;;;;;;4985929;28;20049;-57
2022/04/29 07:12:38;;;;;;;20.90;10.13;;;13.10;99.90;;;;;;4986461;28;20034;-61
2022/04/29 07:15:04;;;;;;;16.17;9.23;;;13.00;99.90;;;;;;4986283;28;20022;-59
2022/04/29 07:17:30;;;;;;;24.65;9.77;;;13.10;99.90;;;;;;4985123;28;20026;-60
2022/04/29 07:19:56;;;;;;;17.17;9.40;;;13.10;99.90;;;;;;4991533;28;20108;-59
2022/04/29 07:22:21;;;;;;;14.93;8.95;;;13.20;99.90;;;;;;4987085;28;20113;-60
2022/04/29 07:24:47;;;;;;;13.35;8.57;;;13.70;99.90;;;;;;4998274;28;20041;-60
2022/04/29 07:27:13;;;;;;;16.25;8.73;;;13.90;99.90;;;;;;4996008;28;20062;-61
2022/04/29 07:29:39;;;;;;;18.17;9.52;;;13.90;99.90;;;;;;4991655;28;20061;-61
2022/04/29 07:32:05;;;;;;;17.23;8.55;;;14.10;99.40;;;;;;4987950;28;20049;-60
2022/04/29 07:42:43;;;;;;;14.50;9.07;;;16.00;96.10;;;;;;4986280;28;20421;-59
2022/04/29 07:45:08;;;;;;;14.77;7.93;;;16.30;94.80;;;;;;4989102;28;20070;-58
2022/04/29 07:47:36;;;;;;;16.23;8.70;;;16.40;93.30;;;;;;4986122;28;20034;-56
2022/04/29 07:50:04;;;;;;;17.48;8.60;;;17.00;93.30;;;;;;4987212;28;20495;-59
2022/04/29 07:52:29;;;;;;;15.93;8.30;;;16.80;92.60;;;;;;4988428;28;20042;-58
2022/04/29 07:54:55;;;;;;;16.70;8.32;;;16.40;93.50;;;;;;4988563;28;20034;-60
2022/04/29 07:57:21;;;;;;;13.93;8.93;;;16.60;94.80;;;;;;4984908;28;20096;-58
2022/04/29 07:59:46;;;;;;;20.83;9.32;;;16.40;95.60;;;;;;4991856;28;20377;-55
2022/04/29 08:02:12;;;;;;;16.35;8.57;;;16.30;94.60;;;;;;4977951;28;20129;-59
2022/04/29 08:04:38;;;;;;;16.15;8.95;;;16.60;96.20;;;;;;4989981;28;20018;-59
2022/04/29 08:07:03;;;;;;;13.35;8.23;;;16.70;95.30;;;;;;4980228;28;20026;-58
2022/04/29 08:09:29;;;;;;;16.00;8.13;;;17.00;94.40;;;;;;4989194;28;20037;-59
2022/04/29 08:11:55;;;;;;;16.83;8.50;;;17.10;93.00;;;;;;4988182;28;20043;-59
2022/04/29 08:14:21;;;;;;;17.30;8.13;;;17.20;92.30;;;;;;4993056;28;20036;-59
2022/04/29 08:16:46;;;;;;;16.48;8.00;;;17.30;93.10;;;;;;4984099;28;20483;-60
2022/04/29 08:19:12;;;;;;;14.82;8.63;;;17.60;92.30;;;;;;4989024;28;20082;-58
2022/04/29 08:21:37;;;;;;;15.57;8.57;;;17.40;93.10;;;;;;4987124;28;20066;-60
2022/04/29 08:24:03;;;;;;;15.35;8.35;;;17.40;94.00;;;;;;4986268;28;20033;-60
2022/04/29 08:26:28;;;;;;;15.10;8.77;;;17.30;94.30;;;;;;4985679;28;20035;-59
2022/04/29 08:28:55;;;;;;;15.18;8.00;;;17.70;92.80;;;;;;4987250;28;20129;-59
2022/04/29 08:31:21;;;;;;;13.80;8.48;;;17.70;92.60;;;;;;4989639;28;20520;-59
2022/04/29 08:33:47;;;;;;;13.95;7.28;;;17.70;93.50;;;;;;4986840;28;20468;-53
2022/04/29 08:36:12;;;;;;;11.65;8.10;;;18.60;92.40;;;;;;4982466;28;20041;-57
2022/04/29 08:38:38;;;;;;;15.70;8.15;;;19.30;91.60;;;;;;4986238;28;20026;-57
2022/04/29 08:41:06;;;;;;;15.43;8.25;;;19.30;91.00;;;;;;4992739;28;20037;-59
2022/04/29 08:43:32;;;;;;;12.65;7.47;;;19.40;90.30;;;;;;4985935;28;20058;-60
2022/04/29 08:46:00;;;;;;;15.30;7.38;;;20.10;90.10;;;;;;4994164;28;20034;-58
2022/04/29 08:48:28;;;;;;;15.30;7.85;;;20.00;87.80;;;;;;4986496;28;20631;-59
2022/04/29 08:50:56;;;;;;;15.45;8.32;;;20.60;86.70;;;;;;4985879;28;20073;-61
2022/04/29 08:53:22;;;;;;;16.55;8.20;;;20.50;83.40;;;;;;4988816;28;20026;-61
2022/04/29 08:58:36;;;;;;;15.57;7.70;;;20.70;83.80;;;;;;4988976;28;20033;-61
2022/04/29 09:01:20;;;;;;;11.65;7.80;;;20.40;81.60;;;;;;4976390;28;20028;-58
2022/04/29 09:03:46;;;;;;;15.60;8.88;;;20.00;83.60;;;;;;4982909;28;20022;-51
2022/04/29 09:06:17;;;;;;;18.65;8.65;;;20.00;83.90;;;;;;4994404;28;20042;-58
2022/04/29 09:08:44;;;;;;;11.20;7.43;;;20.40;83.70;;;;;;4998337;28;20041;-59
2022/04/29 09:11:12;;;;;;;16.83;7.72;;;20.50;82.90;;;;;;4990092;28;20033;-60
2022/04/29 09:13:39;;;;;;;14.88;7.88;;;20.10;84.30;;;;;;4992381;28;20499;-61
2022/04/29 09:16:12;;;;;;;16.77;7.72;;;20.30;84.30;;;;;;4992472;28;20134;-58
2022/04/29 09:18:49;;;;;;;;;;;19.80;84.00;;;;;;4988787;28;20514;-59
2022/04/29 09:21:27;;;;;;;14.40;8.50;;;19.50;84.70;;;;;;4988928;28;19964;-58
2022/04/29 09:23:56;;;;;;;12.23;7.38;;;19.50;86.00;;;;;;4993321;28;20030;-60
2022/04/29 09:26:30;;;;;;;14.57;7.72;;;19.70;86.70;;;;;;4989369;28;20049;-60
2022/04/29 09:29:09;;;;;;;12.98;6.75;;;20.50;84.50;;;;;;4991543;28;20042;-60
2022/04/29 09:31:54;;;;;;;13.63;7.05;;;21.10;83.90;;;;;;4989793;28;20031;-60
2022/04/29 09:34:20;;;;;;;14.32;7.13;;;21.30;82.90;;;;;;4990896;28;20022;-60
2022/04/29 09:36:46;;;;;;;13.82;8.25;;;21.30;83.00;;;;;;4988134;28;20066;-56
2022/04/29 09:39:27;;;;;;;13.63;7.53;;;21.60;81.30;;;;;;4990194;28;20065;-59
2022/04/29 09:41:57;;;;;;;15.20;7.93;;;21.50;81.90;;;;;;4988229;28;20550;-60
2022/04/29 09:44:33;;;;;;;17.08;9.40;;;21.00;82.50;;;;;;4987635;28;20030;-60
2022/04/29 09:47:22;;;;;;;16.33;9.07;;;20.40;82.50;;;;;;4994839;28;20443;-59
2022/04/29 09:49:55;;;;;;;17.27;9.70;;;20.20;85.40;;;;;;4989727;28;20045;-55
2022/04/29 09:52:23;;;;;;;14.32;9.00;;;20.10;84.40;;;;;;4990896;28;20025;-59
2022/04/29 09:54:49;;;;;;;17.35;9.00;;;19.90;85.10;;;;;;4987829;28;20038;-59
2022/04/29 09:57:18;;;;;;;14.93;9.30;;;19.60;86.40;;;;;;4990564;28;20126;-56
2022/04/29 09:59:58;;;;;;;21.95;9.43;;;19.50;85.60;;;;;;4991694;28;20034;-59
2022/04/29 10:02:28;;;;;;;17.23;9.85;;;19.70;86.00;;;;;;4977638;28;20133;-59
2022/04/29 10:04:54;;;;;;;20.65;8.77;;;19.70;85.30;;;;;;4990350;28;20050;-60
2022/04/29 10:07:21;;;;;;;19.85;8.75;;;19.80;85.90;;;;;;4991852;28;20041;-59
2022/04/29 10:09:56;;;;;;;14.00;8.95;;;20.10;86.40;;;;;;4990343;28;20404;-54
2022/04/29 10:12:23;;;;;;;15.77;9.07;;;20.00;82.40;;;;;;4991133;28;20176;-57
2022/04/29 10:14:53;;;;;;;17.33;9.02;;;20.20;81.40;;;;;;4989156;28;20058;-60
2022/04/29 10:23:01;;;;;;;12.65;8.90;;;20.60;82.30;;;;;;4993208;28;20048;-58
2022/04/29 10:25:27;;;;;;;;;;;20.90;81.20;;;;;;4986001;28;20045;-61
2022/04/29 10:27:53;;;;;;;18.67;8.65;;;20.70;82.10;;;;;;4986085;28;20371;-60
2022/04/29 10:30:38;;;;;;;13.95;8.15;;;20.70;82.20;;;;;;4991026;28;20558;-60
2022/04/29 10:33:08;;;;;;;18.13;8.75;;;21.50;79.80;;;;;;4988096;28;20089;-60
2022/04/29 10:35:40;;;;;;;18.33;8.90;;;21.60;79.90;;;;;;4984793;28;20100;-60
2022/04/29 10:38:14;;;;;;;22.88;8.70;;;21.40;79.40;;;;;;4987029;28;20105;-58
2022/04/29 10:40:41;;;;;;;13.57;9.30;;;21.70;79.00;;;;;;4989351;28;20057;-60
2022/04/29 10:43:09;;;;;;;13.20;7.88;;;22.00;78.20;;;;;;4983152;28;20094;-53
2022/04/29 10:45:35;;;;;;;16.27;8.45;;;22.20;79.00;;;;;;4982681;28;20372;-56
2022/04/29 10:48:52;;;;;;;14.18;8.43;;;22.40;76.90;;;;;;4986074;28;20030;-57
2022/04/29 10:51:19;;;;;;;16.52;8.65;;;21.40;79.30;;;;;;5001153;28;20586;-58
2022/04/29 10:53:46;;;;;;;15.25;8.23;;;21.70;79.10;;;;;;4983830;28;20114;-59
2022/04/29 10:56:30;;;;;;;11.70;7.38;;;22.30;78.30;;;;;;4987488;28;20022;-58
2022/04/29 10:59:12;;;;;;;15.15;8.98;;;22.60;76.50;;;;;;4981597;28;20030;-59
2022/04/29 11:01:39;;;;;;;16.45;8.70;;;22.40;75.70;;;;;;4983832;28;20033;-61
2022/04/29 11:04:25;;;;;;;14.13;8.63;;;21.80;78.80;;;;;;4976070;28;20116;-59
2022/04/29 11:06:51;;;;;;;14.40;7.53;;;21.60;80.30;;;;;;4993821;28;20483;-58
2022/04/29 11:09:30;;;;;;;13.23;7.40;;;21.00;80.10;;;;;;4988926;28;20030;-60
2022/04/29 11:11:57;;;;;;;14.77;7.43;;;21.10;81.20;;;;;;4985619;28;20026;-60
2022/04/29 11:14:23;;;;;;;14.95;8.07;;;21.00;79.50;;;;;;4987604;28;20078;-60
2022/04/29 11:17:10;;;;;;;17.70;8.82;;;21.10;79.60;;;;;;4984999;28;20022;-59
2022/04/29 11:19:40;;;;;;;19.35;9.02;;;20.80;80.60;;;;;;4985183;28;20046;-58
2022/04/29 11:24:53;;;;;;;15.13;9.32;;;20.80;80.80;;;;;;4990236;28;20430;-59
2022/04/29 11:27:31;;;;;;;16.52;8.35;;;20.80;80.10;;;;;;4979887;28;20014;-58
2022/04/29 11:30:01;;;;;;;15.25;9.25;;;21.10;81.20;;;;;;4992517;28;20037;-59
2022/04/29 11:32:27;;;;;;;16.80;8.90;;;21.30;80.50;;;;;;4993704;28;20029;-60
2022/04/29 11:34:58;;;;;;;15.60;8.98;;;21.20;79.70;;;;;;4990795;28;20475;-59
2022/04/29 11:37:35;;;;;;;16.08;9.55;;;21.00;80.40;;;;;;4995540;28;20109;-60
2022/04/29 11:40:06;;;;;;;16.95;9.80;;;21.00;79.70;;;;;;4985449;28;20022;-60
2022/04/29 11:42:32;;;;;;;21.92;9.07;;;21.50;80.60;;;;;;4990733;28;20113;-60
2022/04/29 11:45:10;;;;;;;14.52;9.93;;;21.80;78.50;;;;;;4997523;28;20153;-59
2022/04/29 11:47:37;;;;;;;11.75;8.98;;;21.60;77.20;;;;;;4992464;28;20479;-57
2022/04/29 11:50:04;;;;;;;20.02;9.95;;;21.80;76.20;;;;;;4986869;28;20027;-57
2022/04/29 11:52:31;;;;;;;19.55;8.60;;;21.50;76.80;;;;;;4990921;28;20029;-60
2022/04/29 11:55:05;;;;;;;14.60;9.90;;;21.20;78.30;;;;;;4994805;28;20030;-58
2022/04/29 11:57:43;;;;;;;22.75;11.00;;;21.00;78.10;;;;;;4986725;28;20065;-55
2022/04/29 12:00:09;;;;;;;20.05;10.35;;;20.70;79.20;;;;;;4985681;28;20034;-55
2022/04/29 12:02:35;;;;;;;17.33;10.82;;;20.60;79.20;;;;;;4981100;28;20042;-57
2022/04/29 12:05:06;;;;;;;18.95;12.63;;;20.60;80.10;;;;;;4986095;28;20391;-57
2022/04/29 12:07:40;;;;;;;19.30;11.60;;;20.10;80.50;;;;;;4983983;28;20026;-57
2022/04/29 12:10:19;;;;;;;18.10;11.25;;;20.20;81.50;;;;;;4989002;28;20025;-59
2022/04/29 12:12:48;;;;;;;22.33;10.32;;;20.10;82.60;;;;;;5000167;28;20030;-55
2022/04/29 12:15:24;;;;;;;20.08;12.15;;;20.60;80.30;;;;;;4990181;28;20114;-55
2022/04/29 12:17:49;;;;;;;23.85;13.10;;;20.60;80.00;;;;;;4987975;28;20046;-57
2022/04/29 12:20:17;;;;;;;20.33;11.75;;;20.60;81.60;;;;;;4987636;28;20031;-57
2022/04/29 12:22:43;;;;;;;17.98;13.10;;;20.90;78.80;;;;;;4987269;28;20041;-60
2022/04/29 12:25:23;;;;;;;22.38;12.63;;;20.60;79.20;;;;;;4986348;28;20030;-59
2022/04/29 12:28:22;;;;;;;20.98;12.10;;;20.50;80.50;;;;;;4989752;28;20030;-55
2022/04/29 12:36:53;;;;;;;27.25;14.27;;;21.00;83.00;;;;;;4984446;28;20041;-57
2022/04/29 12:39:26;;;;;;;23.00;12.60;;;20.80;80.60;;;;;;4984085;28;20030;-60
2022/04/29 12:42:00;;;;;;;18.65;12.38;;;20.90;81.10;;;;;;4990039;28;20031;-61
2022/04/29 12:47:22;;;;;;;20.70;11.70;;;21.10;79.30;;;;;;4998144;28;20403;-59
2022/04/29 12:49:48;;;;;;;29.20;14.35;;;20.70;80.00;;;;;;5001831;28;20197;-57
2022/04/29 12:52:13;;;;;;;18.27;11.57;;;20.70;80.60;;;;;;4987243;28;20547;-52
2022/04/29 12:54:39;;;;;;;20.83;11.75;;;20.70;80.90;;;;;;4988587;28;20049;-60
2022/04/29 12:57:05;;;;;;;22.75;13.35;;;20.80;80.70;;;;;;4989679;28;20095;-59
2022/04/29 12:59:36;;;;;;;22.05;12.80;;;20.60;80.90;;;;;;4993636;28;20027;-59
2022/04/29 13:02:05;;;;;;;18.77;12.43;;;20.60;80.30;;;;;;4986466;28;20077;-59
2022/04/29 13:04:31;;;;;;;20.35;12.80;;;20.90;81.40;;;;;;4984966;28;20049;-59
2022/04/29 13:06:56;;;;;;;18.50;12.60;;;21.00;80.00;;;;;;4990525;28;20399;-59
2022/04/29 13:09:24;;;;;;;16.98;11.30;;;20.80;80.20;;;;;;4990817;28;20065;-55
2022/04/29 13:11:50;;;;;;;20.25;10.73;;;20.90;78.00;;;;;;4987513;28;20467;-58
2022/04/29 13:14:16;;;;;;;24.30;12.20;;;21.00;77.50;;;;;;4989221;28;20042;-59